createdAt,value
2019-04-06T00:01:12.709Z,98276.58
2019-04-06T00:03:45.087Z,98272.97
2019-04-06T00:06:17.506Z,98278.07
2019-04-06T00:08:49.907Z,98272.50
2019-04-06T00:11:22.328Z,98269.29
2019-04-06T00:13:54.709Z,98273.60
2019-04-06T00:16:27.145Z,98274.09
2019-04-06T00:18:59.549Z,98272.05
2019-04-06T00:21:31.956Z,98266.81
2019-04-06T00:24:04.379Z,98270.67
2019-04-06T00:26:36.786Z,98267.96
2019-04-06T00:29:09.183Z,98269.59
2019-04-06T00:31:55.828Z,98267.09
2019-04-06T00:34:28.208Z,98261.16
2019-04-06T00:37:00.660Z,98263.19
2019-04-06T00:39:33.069Z,98263.87
2019-04-06T00:42:05.475Z,98266.25
2019-04-06T00:44:37.849Z,98265.37
2019-04-06T00:47:10.299Z,98263.74
2019-04-06T00:49:42.696Z,98264.34
2019-04-06T00:52:15.217Z,98263.50
2019-04-06T00:54:47.598Z,98265.84
2019-04-06T00:57:19.998Z,98264.30
2019-04-06T00:59:52.373Z,98264.97
2019-04-06T01:02:24.794Z,98257.89
2019-04-06T01:04:57.189Z,98258.52
2019-04-06T01:07:29.629Z,98251.33
2019-04-06T01:10:02.015Z,98258.48
2019-04-06T01:12:34.492Z,98253.91
2019-04-06T01:15:07.142Z,98257.00
2019-04-06T01:17:39.554Z,98257.72
2019-04-06T01:20:11.931Z,98255.69
2019-04-06T01:22:44.350Z,98259.81
2019-04-06T01:25:17.802Z,98261.69
2019-04-06T01:27:50.300Z,98262.95
2019-04-06T01:30:22.681Z,98260.77
2019-04-06T01:32:55.078Z,98264.05
2019-04-06T01:35:27.480Z,98264.76
2019-04-06T01:37:59.884Z,98259.64
2019-04-06T01:40:32.273Z,98261.98
2019-04-06T01:43:04.709Z,98263.36
2019-04-06T01:45:37.100Z,98261.73
2019-04-06T01:48:09.512Z,98259.87
2019-04-06T01:50:41.894Z,98253.34
2019-04-06T01:53:14.321Z,98249.10
2019-04-06T01:55:46.723Z,98244.05
2019-04-06T01:58:19.123Z,98250.30
2019-04-06T02:01:16.619Z,98249.06
2019-04-06T02:03:49.113Z,98246.45
2019-04-06T02:06:21.515Z,98251.50
2019-04-06T02:08:53.939Z,98250.23
2019-04-06T02:11:26.320Z,98252.86
2019-04-06T02:13:58.735Z,98249.91
2019-04-06T02:16:31.120Z,98246.58
2019-04-06T02:19:03.525Z,98243.48
2019-04-06T02:21:35.989Z,98244.08
2019-04-06T02:24:08.379Z,98243.55
2019-04-06T02:26:40.765Z,98248.82
2019-04-06T02:29:13.155Z,98250.20
2019-04-06T02:32:07.177Z,98251.50
2019-04-06T02:34:57.536Z,98245.54
2019-04-06T02:37:48.884Z,98249.39
2019-04-06T02:40:40.269Z,98245.63
2019-04-06T02:43:16.377Z,98242.02
2019-04-06T02:45:49.234Z,98240.23
2019-04-06T02:48:21.627Z,98238.08
2019-04-06T02:50:54.040Z,98242.06
2019-04-06T02:53:26.417Z,98242.14
2019-04-06T02:55:58.825Z,98247.44
2019-04-06T02:58:31.412Z,98246.56
2019-04-06T03:01:03.981Z,98242.73
2019-04-06T03:03:36.363Z,98244.31
2019-04-06T03:06:08.762Z,98251.85
2019-04-06T03:08:41.372Z,98248.74
2019-04-06T03:11:13.939Z,98246.55
2019-04-06T03:13:46.330Z,98248.30
2019-04-06T03:16:18.739Z,98246.86
2019-04-06T03:18:51.128Z,98244.72
2019-04-06T03:21:23.561Z,98240.70
2019-04-06T03:23:56.165Z,98236.56
2019-04-06T03:26:28.713Z,98234.33
2019-04-06T03:29:01.320Z,98236.58
2019-04-06T03:31:34.003Z,98230.72
2019-04-06T03:34:06.734Z,98237.38
2019-04-06T03:36:39.187Z,98237.03
2019-04-06T03:39:11.584Z,98237.05
2019-04-06T03:41:44.168Z,98238.03
2019-04-06T03:44:16.546Z,98238.67
2019-04-06T03:46:49.088Z,98240.82
2019-04-06T03:49:21.430Z,98240.49
2019-04-06T03:51:53.866Z,98246.55
2019-04-06T03:54:26.248Z,98248.58
2019-04-06T03:56:58.643Z,98251.12
2019-04-06T03:59:31.200Z,98243.91
2019-04-06T04:02:03.783Z,98247.91
2019-04-06T04:04:36.516Z,98247.84
2019-04-06T04:07:09.170Z,98244.41
2019-04-06T04:09:41.593Z,98242.55
2019-04-06T04:12:14.021Z,98243.80
2019-04-06T04:14:46.406Z,98244.30
2019-04-06T04:17:18.807Z,98244.14
2019-04-06T04:19:51.197Z,98242.08
2019-04-06T04:22:23.614Z,98249.71
2019-04-06T04:24:56.082Z,98255.52
2019-04-06T04:27:30.638Z,98257.50
2019-04-06T04:30:06.983Z,98259.00
2019-04-06T04:32:39.491Z,98256.81
2019-04-06T04:35:11.884Z,98258.55
2019-04-06T04:37:44.337Z,98255.92
2019-04-06T04:40:16.722Z,98257.04
2019-04-06T04:42:49.131Z,98258.95
2019-04-06T04:45:21.519Z,98251.62
2019-04-06T04:47:53.913Z,98258.55
2019-04-06T04:50:26.321Z,98262.25
2019-04-06T04:52:58.703Z,98264.73
2019-04-06T04:55:31.089Z,98265.56
2019-04-06T04:58:03.688Z,98268.95
2019-04-06T05:00:36.162Z,98272.42
2019-04-06T05:03:08.562Z,98272.06
2019-04-06T05:05:40.953Z,98277.70
2019-04-06T05:08:13.434Z,98280.29
2019-04-06T05:10:46.045Z,98281.61
2019-04-06T05:13:18.484Z,98280.92
2019-04-06T05:16:22.465Z,98282.46
2019-04-06T05:18:55.919Z,98285.22
2019-04-06T05:21:28.314Z,98288.25
2019-04-06T05:24:00.767Z,98291.66
2019-04-06T05:26:37.860Z,98290.17
2019-04-06T05:29:07.322Z,98289.54
2019-04-06T05:31:39.711Z,98290.50
2019-04-06T05:34:12.121Z,98295.37
2019-04-06T05:36:44.540Z,98299.01
2019-04-06T05:39:19.681Z,98306.25
2019-04-06T05:41:52.047Z,98302.81
2019-04-06T05:44:24.460Z,98305.61
2019-04-06T05:46:56.829Z,98306.67
2019-04-06T05:49:29.247Z,98309.14
2019-04-06T05:52:01.730Z,98303.38
2019-04-06T05:54:34.114Z,98306.27
2019-04-06T05:57:06.506Z,98318.09
2019-04-06T05:59:40.937Z,98317.71
2019-04-06T06:02:12.992Z,98316.53
2019-04-06T06:04:45.402Z,98332.50
2019-04-06T06:07:20.938Z,98336.53
2019-04-06T06:09:53.410Z,98333.19
2019-04-06T06:12:25.794Z,98330.89
2019-04-06T06:14:58.220Z,98332.84
2019-04-06T06:17:30.596Z,98326.22
2019-04-06T06:20:03.012Z,98326.31
2019-04-06T06:22:35.614Z,98328.02
2019-04-06T06:25:08.523Z,98330.56
2019-04-06T06:27:40.975Z,98330.55
2019-04-06T06:30:13.397Z,98327.66
2019-04-06T06:32:45.782Z,98323.80
2019-04-06T06:35:18.200Z,98327.06
2019-04-06T06:37:50.577Z,98330.20
2019-04-06T06:40:23.865Z,98327.86
2019-04-06T06:43:00.559Z,98322.51
2019-04-06T06:45:44.012Z,98320.58
2019-04-06T06:48:16.408Z,98324.70
2019-04-06T06:50:48.815Z,98319.31
2019-04-06T06:53:21.213Z,98315.52
2019-04-06T06:56:07.726Z,98315.42
2019-04-06T06:58:48.557Z,98314.41
2019-04-06T07:01:20.932Z,98316.89
2019-04-06T07:03:53.407Z,98315.32
2019-04-06T07:06:27.370Z,98311.92
2019-04-06T07:08:59.830Z,98308.64
2019-04-06T07:11:32.297Z,98310.41
2019-04-06T07:14:04.822Z,98309.35
2019-04-06T07:16:37.226Z,98305.55
2019-04-06T07:19:09.616Z,98310.92
2019-04-06T07:21:42.091Z,98312.05
2019-04-06T07:24:14.491Z,98313.61
2019-04-06T07:26:46.909Z,98313.44
2019-04-06T07:29:19.307Z,98313.23
2019-04-06T07:31:51.731Z,98315.06
2019-04-06T07:34:25.117Z,98307.84
2019-04-06T07:36:57.610Z,98308.74
2019-04-06T07:39:33.687Z,98308.05
2019-04-06T07:42:06.027Z,98302.50
2019-04-06T07:44:38.428Z,98300.39
2019-04-06T07:47:10.847Z,98301.28
2019-04-06T07:49:43.185Z,98296.42
2019-04-06T07:52:15.607Z,98293.92
2019-04-06T07:54:48.032Z,98295.28
2019-04-06T07:57:20.443Z,98283.69
2019-04-06T07:59:52.827Z,98278.63
2019-04-06T08:02:25.733Z,98281.41
2019-04-06T08:04:58.143Z,98273.47
2019-04-06T08:07:30.558Z,98269.34
2019-04-06T08:10:03.004Z,98267.59
2019-04-06T08:12:35.662Z,98267.00
2019-04-06T08:15:08.099Z,98269.10
2019-04-06T08:17:40.545Z,98274.27
2019-04-06T08:20:12.948Z,98281.62
2019-04-06T08:22:45.664Z,98279.37
2019-04-06T08:25:18.078Z,98280.34
2019-04-06T08:27:50.607Z,98276.80
2019-04-06T08:30:22.966Z,98277.70
2019-04-06T08:32:55.673Z,98272.55
2019-04-06T08:35:28.159Z,98267.99
2019-04-06T08:38:00.491Z,98266.06
2019-04-06T08:40:33.141Z,98272.42
2019-04-06T08:43:05.690Z,98265.13
2019-04-06T08:45:38.095Z,98260.44
2019-04-06T08:48:10.446Z,98257.00
2019-04-06T08:50:42.838Z,98257.83
2019-04-06T08:53:15.295Z,98255.42
2019-04-06T08:55:47.737Z,98256.58
2019-04-06T08:58:20.261Z,98253.92
2019-04-06T09:00:52.677Z,98251.67
2019-04-06T09:03:25.168Z,98250.83
2019-04-06T09:05:57.780Z,98254.53
2019-04-06T09:08:30.223Z,98265.25
2019-04-06T09:11:02.732Z,98256.72
2019-04-06T09:13:35.162Z,98261.13
2019-04-06T09:16:07.584Z,98251.06
2019-04-06T09:18:40.007Z,98250.36
2019-04-06T09:21:12.404Z,98243.39
2019-04-06T09:23:45.012Z,98244.48
2019-04-06T09:26:17.397Z,98245.52
2019-04-06T09:28:49.889Z,98234.95
2019-04-06T09:31:22.548Z,98237.17
2019-04-06T09:33:57.498Z,98229.58
2019-04-06T09:36:29.904Z,98235.44
2019-04-06T09:39:02.322Z,98224.56
2019-04-06T09:41:36.070Z,98233.45
2019-04-06T09:44:13.115Z,98224.77
2019-04-06T09:47:09.226Z,98220.77
2019-04-06T09:50:06.349Z,98216.59
2019-04-06T09:53:01.636Z,98204.45
2019-04-06T09:55:39.815Z,98198.88
2019-04-06T09:58:18.756Z,98198.11
2019-04-06T10:01:10.173Z,98195.37
2019-04-06T10:03:59.974Z,98201.95
2019-04-06T10:06:48.800Z,98197.41
2019-04-06T10:09:42.060Z,98192.20
2019-04-06T10:12:30.697Z,98190.70
2019-04-06T10:15:15.818Z,98197.36
2019-04-06T10:18:22.264Z,98187.95
2019-04-06T10:21:13.640Z,98189.20
2019-04-06T10:24:23.165Z,98189.09
2019-04-06T10:27:01.646Z,98184.42
2019-04-06T10:29:51.812Z,98180.37
2019-04-06T10:32:36.493Z,98176.93
2019-04-06T10:35:31.702Z,98169.16
2019-04-06T10:38:12.551Z,98177.83
2019-04-06T10:41:03.909Z,98168.98
2019-04-06T10:43:55.316Z,98173.05
2019-04-06T10:46:50.019Z,98161.49
2019-04-06T10:49:50.388Z,98164.91
2019-04-06T10:52:44.787Z,98161.51
2019-04-06T10:55:26.184Z,98159.94
2019-04-06T10:58:18.655Z,98153.23
2019-04-06T11:01:16.134Z,98153.98
2019-04-06T11:04:02.411Z,98156.37
2019-04-06T11:06:59.707Z,98153.55
2019-04-06T11:09:56.940Z,98151.88
2019-04-06T11:12:48.294Z,98156.78
2019-04-06T11:15:39.678Z,98159.69
2019-04-06T11:18:29.967Z,98153.78
2019-04-06T11:21:21.365Z,98153.30
2019-04-06T11:24:12.752Z,98156.20
2019-04-06T11:27:02.734Z,98153.97
2019-04-06T11:30:11.209Z,98158.45
2019-04-06T11:32:55.552Z,98152.98
2019-04-06T11:35:52.703Z,98143.91
2019-04-06T11:38:53.109Z,98141.82
2019-04-06T12:02:21.793Z,98150.31
2019-04-06T12:10:33.009Z,98150.04
2019-04-06T12:19:38.913Z,98149.81
2019-04-06T12:27:25.387Z,98138.89
2019-04-06T12:31:02.415Z,98136.66
2019-04-06T12:38:51.715Z,98136.17
2019-04-06T12:55:37.248Z,98132.17
2019-04-06T13:08:05.529Z,98129.42
2019-04-06T13:15:52.429Z,98120.90
2019-04-06T13:19:16.306Z,98124.74
2019-04-06T13:22:46.396Z,98129.38
2019-04-06T13:25:43.397Z,98129.23
2019-04-06T13:28:54.590Z,98122.66
2019-04-06T13:32:12.066Z,98116.73
2019-04-06T13:35:32.706Z,98116.27
2019-04-06T13:38:52.898Z,98120.95
2019-04-06T13:47:18.036Z,98117.30
2019-04-06T13:50:29.888Z,98110.42
2019-04-06T13:53:24.845Z,98103.72
2019-04-06T13:56:16.350Z,98103.08
2019-04-06T13:59:10.805Z,98096.84
2019-04-06T14:02:02.548Z,98096.53
2019-04-06T14:04:59.717Z,98089.34
2019-04-06T14:07:49.777Z,98092.43
2019-04-06T14:10:56.492Z,98095.63
2019-04-06T14:13:47.838Z,98092.42
2019-04-06T14:16:39.212Z,98081.94
2019-04-06T14:19:36.572Z,98078.78
2019-04-06T14:22:24.506Z,98078.44
2019-04-06T14:25:14.812Z,98076.23
2019-04-06T14:28:01.421Z,98067.08
2019-04-06T14:30:57.005Z,98063.23
2019-04-06T14:33:45.122Z,98058.25
2019-04-06T14:36:55.002Z,98055.04
2019-04-06T14:39:37.263Z,98059.09
2019-04-06T14:42:24.960Z,98056.36
2019-04-06T14:45:25.729Z,98053.95
2019-04-06T14:48:09.418Z,98050.42
2019-04-06T14:51:07.287Z,98044.14
2019-04-06T14:53:50.119Z,98042.70
2019-04-06T14:56:40.474Z,98045.91
2019-04-06T14:59:41.097Z,98043.98
2019-04-06T15:02:38.117Z,98047.05
2019-04-06T15:05:44.555Z,98048.66
2019-04-06T15:08:42.280Z,98042.39
2019-04-06T15:11:33.677Z,98046.56
2019-04-06T15:14:23.918Z,98042.70
2019-04-06T15:17:21.119Z,98037.71
2019-04-06T15:20:21.612Z,98036.41
2019-04-06T15:23:02.396Z,98033.52
2019-04-06T15:26:00.093Z,98033.18
2019-04-06T15:28:51.805Z,98033.03
2019-04-06T15:31:55.269Z,98029.81
2019-04-06T15:34:58.938Z,98028.53
2019-04-06T15:37:49.008Z,98021.93
2019-04-06T15:40:29.927Z,98018.72
2019-04-06T15:43:24.218Z,98022.44
2019-04-06T15:46:05.746Z,98013.58
2019-04-06T15:48:55.911Z,98015.36
2019-04-06T15:51:45.448Z,98010.07
2019-04-06T15:54:33.145Z,98008.94
2019-04-06T15:57:19.054Z,98010.22
2019-04-06T16:00:00.020Z,98005.42
2019-04-06T16:03:00.405Z,98001.23
2019-04-06T16:05:53.830Z,98000.74
2019-04-06T16:08:54.254Z,97996.56
2019-04-06T16:11:48.411Z,97992.88
2019-04-06T16:14:39.025Z,97991.77
2019-04-06T16:17:26.328Z,97994.16
2019-04-06T16:20:17.682Z,97988.55
2019-04-06T16:23:08.844Z,97989.67
2019-04-06T16:25:59.402Z,97985.96
2019-04-06T16:28:42.832Z,97982.91
2019-04-06T16:31:22.796Z,97980.50
2019-04-06T16:34:14.235Z,97982.73
2019-04-06T16:37:05.910Z,97982.73
2019-04-06T16:39:56.282Z,97980.50
2019-04-06T16:42:55.192Z,97977.12
2019-04-06T16:45:43.866Z,97979.20
2019-04-06T16:48:32.175Z,97974.70
2019-04-06T16:51:22.419Z,97976.64
2019-04-06T16:54:12.347Z,97977.92
2019-04-06T16:56:52.465Z,97975.83
2019-04-06T16:59:36.427Z,97973.27
2019-04-06T17:02:22.930Z,97977.76
2019-04-06T17:05:19.150Z,97980.31
2019-04-06T17:08:09.256Z,97982.08
2019-04-06T17:10:50.755Z,97981.28
2019-04-06T17:13:38.836Z,97982.39
2019-04-06T17:16:30.262Z,97980.63
2019-04-06T17:19:20.710Z,97980.27
2019-04-06T17:22:04.381Z,97983.48
2019-04-06T17:24:43.696Z,97986.83
2019-04-06T17:27:33.813Z,97994.70
2019-04-06T17:30:17.580Z,97986.97
2019-04-06T17:33:00.865Z,97984.41
2019-04-06T17:35:40.288Z,97987.30
2019-04-06T17:38:40.700Z,97989.55
2019-04-06T17:41:25.078Z,97991.80
2019-04-06T17:44:17.300Z,97995.64
2019-04-06T17:47:21.033Z,97998.84
2019-04-06T17:50:03.239Z,98000.12
2019-04-06T17:52:53.386Z,97997.37
2019-04-06T17:55:59.305Z,98000.42
2019-04-06T17:58:50.717Z,97999.14
2019-04-06T18:01:54.612Z,98002.50
2019-04-06T18:04:44.725Z,97999.27
2019-04-06T18:07:32.792Z,98002.34
2019-04-06T18:10:20.823Z,98000.70
2019-04-06T18:13:06.759Z,98002.63
2019-04-06T18:15:39.166Z,97997.30
2019-04-06T18:18:11.734Z,98002.75
2019-04-06T18:20:44.157Z,98002.73
2019-04-06T18:23:16.587Z,98001.30
2019-04-06T18:25:48.989Z,98002.25
2019-04-06T18:28:21.594Z,98003.86
2019-04-06T18:31:09.464Z,98003.35
2019-04-06T18:33:42.388Z,98000.30
2019-04-06T18:36:15.226Z,97996.91
2019-04-06T18:38:52.541Z,97999.77
2019-04-06T18:41:25.054Z,97999.75
2019-04-06T18:43:57.895Z,97996.52
2019-04-06T18:46:30.349Z,98001.80
2019-04-06T18:49:03.208Z,98007.23
2019-04-06T18:51:36.600Z,98007.07
2019-04-06T18:54:09.874Z,98008.51
2019-04-06T18:56:42.357Z,98010.91
2019-04-06T18:59:15.945Z,98008.61
2019-04-06T19:01:48.513Z,98010.99
2019-04-06T19:04:20.890Z,98008.73
2019-04-06T19:06:53.634Z,98011.11
2019-04-06T19:09:26.079Z,98010.95
2019-04-06T19:11:58.553Z,98009.97
2019-04-06T19:14:31.528Z,98013.98
2019-04-06T19:17:04.176Z,98015.22
2019-04-06T19:19:36.590Z,98015.23
2019-04-06T19:22:09.364Z,98015.69
2019-04-06T19:24:43.421Z,98017.28
2019-04-06T19:27:15.894Z,98019.02
2019-04-06T19:29:48.611Z,98023.84
2019-04-06T19:32:21.307Z,98023.33
2019-04-06T19:34:53.698Z,98028.79
2019-04-06T19:37:26.096Z,98027.02
2019-04-06T19:39:58.513Z,98027.84
2019-04-06T19:42:31.058Z,98030.06
2019-04-06T19:45:03.606Z,98029.13
2019-04-06T19:47:37.210Z,98025.08
2019-04-06T19:50:09.646Z,98023.64
2019-04-06T19:52:42.517Z,98028.44
2019-04-06T19:55:15.077Z,98026.46
2019-04-06T19:57:47.526Z,98028.39
2019-04-06T20:00:22.433Z,98026.11
2019-04-06T20:02:55.155Z,98031.41
2019-04-06T20:05:27.619Z,98026.75
2019-04-06T20:08:00.459Z,98028.35
2019-04-06T20:10:32.941Z,98028.84
2019-04-06T20:13:05.383Z,98023.73
2019-04-06T20:15:37.849Z,98021.64
2019-04-06T20:18:10.344Z,98022.75
2019-04-06T20:20:43.092Z,98025.64
2019-04-06T20:23:15.580Z,98024.05
2019-04-06T20:25:47.969Z,98025.50
2019-04-06T20:28:20.348Z,98025.66
2019-04-06T20:30:53.223Z,98023.73
2019-04-06T20:33:25.868Z,98028.05
2019-04-06T20:35:58.692Z,98028.20
2019-04-06T20:38:31.273Z,98025.94
2019-04-06T20:41:04.300Z,98024.02
2019-04-06T20:43:36.830Z,98024.80
2019-04-06T20:46:09.729Z,98032.01
2019-04-06T20:48:42.268Z,98025.45
2019-04-06T20:51:14.737Z,98022.09
2019-04-06T20:53:47.188Z,98022.72
2019-04-06T20:56:19.700Z,98024.48
2019-04-06T20:58:52.178Z,98022.08
2019-04-06T21:01:24.572Z,98024.81
2019-04-06T21:04:01.046Z,98028.02
2019-04-06T21:06:31.129Z,98026.11
2019-04-06T21:09:05.556Z,98030.76
2019-04-06T21:11:38.075Z,98023.72
2019-04-06T21:14:10.438Z,98025.33
2019-04-06T21:16:43.419Z,98023.69
2019-04-06T21:19:15.895Z,98017.61
2019-04-06T21:21:48.267Z,98021.45
2019-04-06T21:24:20.760Z,98023.84
2019-04-06T21:26:53.278Z,98021.94
2019-04-06T21:29:25.684Z,98013.75
2019-04-06T22:30:29.360Z,98015.70
2019-04-06T22:33:02.873Z,98016.34
2019-04-06T22:35:36.253Z,98017.98
2019-04-06T22:38:09.217Z,98014.63
2019-04-06T22:40:42.093Z,98017.22
2019-04-06T22:43:14.890Z,98017.56
2019-04-06T22:45:48.041Z,98012.28
2019-04-06T22:48:20.922Z,98015.02
2019-04-06T22:50:54.170Z,98012.45
2019-04-06T22:53:27.123Z,98016.16
2019-04-06T22:56:00.613Z,98013.42
2019-04-06T22:58:33.666Z,98011.98
2019-04-06T23:01:10.643Z,98008.63
2019-04-06T23:04:01.200Z,98008.16
2019-04-06T23:06:38.439Z,98014.39
2019-04-06T23:09:11.309Z,98014.53
2019-04-06T23:11:44.673Z,98012.13
2019-04-06T23:14:17.892Z,98013.59
2019-04-06T23:16:50.855Z,98010.24
2019-04-06T23:19:23.730Z,98012.33
2019-04-06T23:21:56.646Z,98004.14
2019-04-06T23:24:29.412Z,98000.62
2019-04-06T23:27:02.399Z,98004.48
2019-04-06T23:29:35.877Z,98004.46
2019-04-06T23:32:09.343Z,98001.23
2019-04-06T23:34:42.126Z,98004.59
2019-04-06T23:37:15.128Z,98005.69
2019-04-06T23:39:48.196Z,98002.80
2019-04-06T23:42:21.691Z,98001.95
2019-04-06T23:44:54.564Z,98006.75
2019-04-06T23:47:27.459Z,98011.03
2019-04-06T23:50:00.311Z,98012.28
2019-04-06T23:52:33.297Z,98012.28
2019-04-06T23:55:06.500Z,98002.01
2019-04-06T23:57:39.395Z,98004.27
